Time;durP1;ratioP1;P1;durP2;ratioP2;P2;SDS_P1;SDS_P2;PMS_P1;PMS_P2;Temp;Humidity;BMP_temperature;BMP_pressure;BME280_temperature;BME280_humidity;BME280_pressure;Samples;Min_cycle;Max_cycle;Signal;HPM_P1;HPM_P2
2021/05/04 00:02:08;;;;;;;7.47;1.80;;;;;;;23.84;41.05;100050.22;4484154;32;34475;-62
2021/05/04 00:04:35;;;;;;;6.85;1.80;;;;;;;23.85;40.87;100048.34;4484432;32;33514;-61
2021/05/04 00:07:02;;;;;;;10.00;2.37;;;;;;;23.84;41.07;100044.78;4484412;32;33948;-62
2021/05/04 00:09:29;;;;;;;11.00;1.58;;;;;;;23.84;41.26;100050.22;4484491;32;33380;-62
2021/05/04 00:11:57;;;;;;;6.60;2.03;;;;;;;23.83;41.25;100042.28;4484199;32;35397;-61
2021/05/04 00:14:24;;;;;;;6.20;1.95;;;;;;;23.83;41.22;100036.84;4484124;32;33767;-60
2021/05/04 00:16:51;;;;;;;5.87;1.85;;;;;;;23.83;41.26;100043.13;4484274;32;33524;-62
2021/05/04 00:19:18;;;;;;;7.05;1.90;;;;;;;23.82;41.25;100044.16;4483903;32;33805;-57
2021/05/04 00:21:45;;;;;;;5.72;1.58;;;;;;;23.82;41.25;100040.59;4475564;32;33877;-60
2021/05/04 00:24:12;;;;;;;5.10;1.70;;;;;;;23.82;41.14;100046.87;4480747;32;33715;-59
2021/05/04 00:26:40;;;;;;;6.03;2.10;;;;;;;23.84;41.21;100038.50;4468224;32;32953;-61
2021/05/04 00:29:07;;;;;;;6.57;1.73;;;;;;;23.82;41.22;100035.97;4474058;32;33770;-59
2021/05/04 00:31:34;;;;;;;5.78;1.60;;;;;;;23.82;41.28;100037.88;4483902;32;34868;-60
2021/05/04 00:34:01;;;;;;;5.60;1.73;;;;;;;23.82;41.28;100030.53;4484000;32;34503;-59
2021/05/04 00:36:28;;;;;;;7.50;1.70;;;;;;;23.83;41.24;100034.09;4482417;32;33314;-62
2021/05/04 00:38:56;;;;;;;3.95;1.55;;;;;;;23.82;41.17;100033.25;4484044;32;33828;-61
2021/05/04 00:41:23;;;;;;;4.35;1.65;;;;;;;23.82;41.23;100032.41;4483867;32;33843;-60
2021/05/04 00:43:51;;;;;;;5.80;1.45;;;;;;;23.82;41.40;100029.69;4483951;32;33762;-62
2021/05/04 00:46:18;;;;;;;6.72;1.90;;;;;;;23.82;41.37;100033.25;4482327;32;33223;-62
2021/05/04 00:48:45;;;;;;;7.80;1.85;;;;;;;23.81;41.37;100026.13;4483575;32;33767;-60
2021/05/04 00:51:13;;;;;;;7.75;2.00;;;;;;;23.81;41.40;100023.41;4484160;32;33874;-62
2021/05/04 00:53:40;;;;;;;4.97;1.50;;;;;;;23.80;41.34;100024.47;4482733;32;33763;-62
2021/05/04 00:56:07;;;;;;;5.90;1.80;;;;;;;23.81;41.37;100019.84;4482565;32;33376;-61
2021/05/04 00:58:34;;;;;;;4.78;1.62;;;;;;;23.80;41.40;100010.84;4469930;32;34923;-62
2021/05/04 01:01:02;;;;;;;4.75;1.58;;;;;;;23.79;41.42;100009.19;4482705;32;33832;-61
2021/05/04 01:03:29;;;;;;;4.87;1.67;;;;;;;23.80;41.28;100018.19;4483569;32;34331;-62
2021/05/04 01:05:56;;;;;;;7.40;1.80;;;;;;;23.79;41.46;100011.09;4482593;32;34253;-62
2021/05/04 01:08:23;;;;;;;6.47;1.60;;;;;;;23.79;41.48;100019.25;4483822;32;33713;-61
2021/05/04 01:10:51;;;;;;;6.85;1.90;;;;;;;23.78;41.48;100010.25;4483647;32;34748;-63
2021/05/04 01:13:18;;;;;;;5.65;1.50;;;;;;;23.78;41.46;100017.56;4482830;32;33814;-61
2021/05/04 01:15:45;;;;;;;5.37;1.70;;;;;;;23.77;41.47;100014.00;4483818;32;33088;-62
2021/05/04 01:18:13;;;;;;;3.70;1.65;;;;;;;23.78;41.48;100014.84;4482139;32;34867;-60
2021/05/04 01:20:40;;;;;;;5.85;1.77;;;;;;;23.77;41.38;100019.47;4483614;32;33799;-59
2021/05/04 01:23:10;;;;;;;3.75;1.33;;;;;;;23.77;41.45;100015.91;4469971;32;33721;-62
2021/05/04 01:25:38;;;;;;;5.80;1.60;;;;;;;23.78;41.26;100012.97;4483613;32;34053;-63
2021/05/04 01:28:05;;;;;;;6.25;1.50;;;;;;;23.77;41.47;100019.47;4483514;32;33825;-62
2021/05/04 01:30:32;;;;;;;8.07;1.90;;;;;;;23.77;41.71;100014.00;4482928;32;34805;-63
2021/05/04 01:33:00;;;;;;;4.45;1.37;;;;;;;23.77;41.66;100013.19;4483309;32;34556;-62
2021/05/04 01:35:27;;;;;;;7.85;1.73;;;;;;;23.77;41.67;100013.19;4483452;32;33928;-62
2021/05/04 01:37:56;;;;;;;7.35;1.55;;;;;;;23.76;41.72;100012.34;4483588;32;33588;-62
2021/05/04 01:40:24;;;;;;;5.00;1.65;;;;;;;23.77;41.71;100013.19;4477390;32;33857;-62
2021/05/04 01:42:51;;;;;;;3.58;1.40;;;;;;;23.77;41.68;100007.72;4467852;32;33768;-62
2021/05/04 01:45:29;;;;;;;7.72;1.50;;;;;;;23.75;41.66;99999.78;4467720;32;33325;-61
2021/05/04 01:47:57;;;;;;;5.85;1.73;;;;;;;23.76;41.61;100004.19;4467649;32;33676;-62
2021/05/04 01:50:24;;;;;;;5.62;1.73;;;;;;;23.74;41.64;99994.59;4467696;32;34947;-59
2021/05/04 01:52:51;;;;;;;5.87;1.80;;;;;;;23.75;41.57;99994.34;4467513;32;33946;-62
2021/05/04 01:55:19;;;;;;;4.50;1.50;;;;;;;23.75;41.55;99986.19;4467487;32;33399;-61
2021/05/04 01:57:47;;;;;;;8.80;1.77;;;;;;;23.75;41.59;99985.34;4467581;32;34442;-62
2021/05/04 02:00:15;;;;;;;6.47;1.75;;;;;;;23.75;41.56;99979.91;4467699;32;33612;-62
2021/05/04 02:02:42;;;;;;;8.07;1.95;;;;;;;23.75;41.51;99978.00;4467369;32;34445;-62
2021/05/04 02:05:10;;;;;;;4.75;1.80;;;;;;;23.74;41.50;99984.50;4467573;32;33162;-62
2021/05/04 02:07:37;;;;;;;9.68;1.67;;;;;;;23.74;41.35;99976.34;4467724;32;34663;-62
2021/05/04 02:10:05;;;;;;;6.87;2.22;;;;;;;23.74;41.41;99972.78;4467680;32;33952;-62
2021/05/04 02:12:32;;;;;;;5.55;1.50;;;;;;;23.74;41.58;99979.06;4467346;32;33783;-62
2021/05/04 02:14:59;;;;;;;4.00;1.60;;;;;;;23.73;41.59;99973.81;4467087;32;34315;-62
2021/05/04 02:17:26;;;;;;;3.85;1.40;;;;;;;23.74;41.59;99983.69;4467202;32;33848;-62
2021/05/04 02:19:54;;;;;;;6.03;1.60;;;;;;;23.73;41.58;99977.38;4467294;32;33586;-61
2021/05/04 02:22:33;;;;;;;3.45;1.37;;;;;;;23.73;41.56;99974.66;4467270;32;34191;-61
2021/05/04 02:25:01;;;;;;;6.35;1.62;;;;;;;23.74;41.53;99976.34;4467093;32;33199;-62
2021/05/04 02:27:28;;;;;;;7.07;1.60;;;;;;;23.74;41.53;99975.50;4467117;32;33767;-62
2021/05/04 02:29:55;;;;;;;5.60;1.65;;;;;;;23.74;41.55;99978.22;4467055;32;33544;-61
2021/05/04 02:32:22;;;;;;;4.78;1.60;;;;;;;23.74;41.47;99979.06;4467052;32;33847;-60
2021/05/04 02:34:49;;;;;;;5.57;1.60;;;;;;;23.74;41.50;99978.22;4465700;32;34322;-62
2021/05/04 02:37:16;;;;;;;8.15;1.58;;;;;;;23.73;41.46;99971.09;4466920;32;34853;-62
2021/05/04 02:39:44;;;;;;;5.53;1.60;;;;;;;23.72;41.44;99962.09;4467307;32;33791;-62
2021/05/04 02:42:12;;;;;;;5.87;1.50;;;;;;;23.71;41.46;99971.31;4479792;32;34566;-60
2021/05/04 02:44:39;;;;;;;5.78;2.03;;;;;;;23.71;41.42;99974.06;4477721;32;32533;-62
2021/05/04 02:47:06;;;;;;;4.78;1.40;;;;;;;23.71;41.56;99973.22;4484379;32;34635;-62
2021/05/04 02:49:34;;;;;;;2.40;1.15;;;;;;;23.71;41.53;99967.78;4484357;32;33810;-61
2021/05/04 02:52:01;;;;;;;3.85;1.40;;;;;;;23.70;41.45;99969.66;4483963;32;33766;-61
2021/05/04 02:54:28;;;;;;;7.00;1.70;;;;;;;23.71;41.47;99971.31;4484684;32;33436;-62
2021/05/04 02:56:55;;;;;;;5.50;1.60;;;;;;;23.70;41.50;99969.66;4484750;32;33918;-62
2021/05/04 02:59:22;;;;;;;8.93;1.58;;;;;;;23.72;41.56;99969.44;4484735;32;34981;-62
2021/05/04 03:01:50;;;;;;;5.35;1.50;;;;;;;23.71;41.53;99965.06;4484752;32;33739;-61
2021/05/04 03:04:18;;;;;;;4.18;1.70;;;;;;;23.71;41.48;99963.16;4484828;32;33300;-62
2021/05/04 03:06:45;;;;;;;6.95;1.37;;;;;;;23.70;41.52;99956.03;4484609;32;34777;-63
2021/05/04 03:09:12;;;;;;;4.07;1.40;;;;;;;23.70;41.49;99955.22;4484718;32;33916;-61
2021/05/04 03:11:39;;;;;;;5.28;1.45;;;;;;;23.69;41.46;99957.13;4484797;32;33815;-62
2021/05/04 03:14:06;;;;;;;4.60;1.65;;;;;;;23.70;41.45;99958.78;4484194;32;33093;-62
2021/05/04 03:16:34;;;;;;;4.93;2.05;;;;;;;23.70;41.44;99949.78;4484504;32;33626;-59
2021/05/04 03:19:01;;;;;;;4.72;1.42;;;;;;;23.69;41.43;99946.22;4484902;32;33966;-62
2021/05/04 03:21:29;;;;;;;4.05;1.20;;;;;;;23.69;41.45;99948.94;4484513;32;34754;-62
2021/05/04 03:23:56;;;;;;;6.50;1.27;;;;;;;23.68;41.43;99950.81;4484605;32;33340;-62
2021/05/04 03:26:23;;;;;;;5.00;1.90;;;;;;;23.68;41.41;99942.63;4484641;32;35307;-62
2021/05/04 03:28:50;;;;;;;3.00;1.33;;;;;;;23.68;41.42;99942.63;4484416;32;33941;-62
2021/05/04 03:31:17;;;;;;;7.35;1.45;;;;;;;23.67;41.43;99946.41;4484307;32;33842;-61
2021/05/04 03:33:45;;;;;;;4.07;1.40;;;;;;;23.68;41.43;99947.25;4482691;32;33489;-60
2021/05/04 03:36:12;;;;;;;4.57;1.45;;;;;;;23.67;41.43;99943.69;4471198;32;34794;-57
2021/05/04 03:38:39;;;;;;;3.37;1.33;;;;;;;23.68;41.36;99952.69;4479154;32;33623;-59
2021/05/04 03:41:06;;;;;;;5.80;1.40;;;;;;;23.67;41.35;99951.88;4476038;32;33878;-60
2021/05/04 03:43:34;;;;;;;8.65;1.62;;;;;;;23.67;41.39;99951.88;4472459;32;33381;-60
2021/05/04 03:46:01;;;;;;;4.70;1.55;;;;;;;23.68;41.50;99949.97;4481275;32;33972;-60
2021/05/04 03:48:28;;;;;;;3.87;1.45;;;;;;;23.66;41.49;99950.22;4483783;32;33948;-62
2021/05/04 03:50:55;;;;;;;7.22;1.55;;;;;;;23.67;41.44;99948.31;4484323;32;33827;-62
2021/05/04 03:53:22;;;;;;;7.22;1.60;;;;;;;23.68;41.45;99949.97;4477949;32;34121;-61
2021/05/04 03:55:49;;;;;;;5.10;1.62;;;;;;;23.66;41.51;99942.03;4468637;32;34456;-59
2021/05/04 03:58:17;;;;;;;2.90;1.10;;;;;;;23.67;41.47;99949.13;4468499;32;34870;-62
2021/05/04 04:00:44;;;;;;;5.75;1.48;;;;;;;23.66;41.48;99941.19;4468768;32;33839;-61
2021/05/04 04:03:11;;;;;;;5.50;1.50;;;;;;;23.65;41.45;99940.37;4468639;32;34014;-60
2021/05/04 04:05:38;;;;;;;6.20;1.50;;;;;;;23.65;41.40;99940.37;4474988;32;33842;-62
2021/05/04 04:08:05;;;;;;;4.78;1.20;;;;;;;23.65;41.44;99934.09;4484290;32;33867;-63
2021/05/04 04:10:33;;;;;;;11.30;1.48;;;;;;;23.66;41.45;99935.75;4484325;32;33753;-61
2021/05/04 04:13:00;;;;;;;6.57;1.50;;;;;;;23.65;41.49;99932.19;4484205;32;33297;-61
2021/05/04 04:15:27;;;;;;;3.53;1.27;;;;;;;23.66;41.45;99919.41;4484246;32;33525;-62
2021/05/04 04:17:54;;;;;;;5.55;1.30;;;;;;;23.65;41.43;99915.84;4484306;32;34622;-61
2021/05/04 04:20:22;;;;;;;6.20;1.30;;;;;;;23.64;41.42;99925.09;4484165;31;33686;-62
2021/05/04 04:22:48;;;;;;;5.40;1.10;;;;;;;23.65;41.44;99929.47;4484355;32;33195;-61
2021/05/04 04:25:16;;;;;;;4.25;1.17;;;;;;;23.65;41.44;99926.75;4484243;32;33527;-62
2021/05/04 04:27:43;;;;;;;6.32;1.30;;;;;;;23.64;41.43;99919.66;4483975;32;33704;-62
2021/05/04 04:30:10;;;;;;;3.85;1.20;;;;;;;23.65;41.40;99923.19;4484226;32;34567;-61
2021/05/04 04:32:37;;;;;;;5.37;1.50;;;;;;;23.64;41.44;99927.81;4484082;32;33062;-61
2021/05/04 04:35:05;;;;;;;3.12;1.30;;;;;;;23.64;41.35;99916.94;4484018;32;33707;-62
2021/05/04 04:37:32;;;;;;;3.83;1.30;;;;;;;23.64;41.40;99925.09;4484100;32;33761;-61
2021/05/04 04:39:59;;;;;;;4.57;1.58;;;;;;;23.63;41.41;99928.81;4484174;32;33810;-61
2021/05/04 04:42:26;;;;;;;3.70;1.30;;;;;;;23.63;41.39;99930.72;4475635;32;33408;-63
2021/05/04 04:44:53;;;;;;;3.42;1.27;;;;;;;23.62;41.40;99921.72;4468438;32;33917;-62
2021/05/04 04:47:21;;;;;;;4.25;1.23;;;;;;;23.62;41.33;99920.88;4468273;32;33889;-62
2021/05/04 04:49:48;;;;;;;4.82;1.37;;;;;;;23.61;41.32;99920.06;4468529;32;33794;-62
2021/05/04 04:52:15;;;;;;;3.62;1.40;;;;;;;23.62;41.37;99907.25;4468400;32;34238;-61
2021/05/04 04:54:42;;;;;;;4.60;1.40;;;;;;;23.61;41.39;99911.88;4468334;32;33352;-62
2021/05/04 04:57:09;;;;;;;2.97;1.42;;;;;;;23.62;41.33;99910.81;4468085;32;33817;-63
2021/05/04 04:59:37;;;;;;;4.00;1.25;;;;;;;23.62;41.43;99907.25;4470146;32;34786;-60
2021/05/04 05:02:04;;;;;;;3.22;1.27;;;;;;;23.60;41.39;99906.66;4472417;32;32976;-61
2021/05/04 05:04:31;;;;;;;4.45;1.35;;;;;;;23.60;41.43;99904.78;4467051;32;33716;-59
2021/05/04 05:07:01;;;;;;;4.57;1.62;;;;;;;23.61;41.41;99919.22;4466902;32;33905;-59
2021/05/04 05:09:28;;;;;;;3.37;1.30;;;;;;;23.60;41.43;99912.94;4468131;32;33768;-61
2021/05/04 05:11:55;;;;;;;5.03;1.50;;;;;;;23.61;41.46;99911.06;4468301;32;33211;-59
2021/05/04 05:14:23;;;;;;;3.55;1.10;;;;;;;23.60;41.44;99904.78;4468027;32;34593;-59
2021/05/04 05:16:50;;;;;;;5.20;1.25;;;;;;;23.61;41.49;99905.59;4468037;32;33700;-60
2021/05/04 05:19:17;;;;;;;4.00;1.40;;;;;;;23.61;41.50;99902.87;4467918;32;34396;-58
2021/05/04 05:21:44;;;;;;;4.50;1.45;;;;;;;23.60;41.50;99896.59;4467984;32;34118;-60
2021/05/04 05:24:11;;;;;;;13.50;1.75;;;;;;;23.60;41.44;99902.06;4467769;32;33551;-61
2021/05/04 05:26:40;;;;;;;2.62;1.00;;;;;;;23.60;41.46;99902.06;4472504;32;33807;-62
2021/05/04 05:29:07;;;;;;;4.97;1.27;;;;;;;23.61;41.58;99901.00;4474906;32;33782;-62
2021/05/04 05:31:36;;;;;;;8.05;1.37;;;;;;;23.61;41.50;99898.25;4480723;32;85421;-62
2021/05/04 05:34:03;;;;;;;5.55;1.40;;;;;;;23.60;41.56;99890.31;4483316;32;33849;-61
2021/05/04 05:36:30;;;;;;;5.05;1.77;;;;;;;23.61;41.49;99892.81;4483476;32;34006;-62
2021/05/04 05:38:58;;;;;;;3.67;1.30;;;;;;;23.61;41.49;99883.81;4483383;32;34451;-59
2021/05/04 05:41:25;;;;;;;2.15;1.10;;;;;;;23.60;41.42;99882.97;4481610;32;34099;-62
2021/05/04 05:43:52;;;;;;;3.90;1.20;;;;;;;23.61;41.31;99879.19;4467620;32;34117;-59
2021/05/04 05:46:20;;;;;;;3.40;1.30;;;;;;;23.62;41.22;99874.56;4467654;32;34670;-63
2021/05/04 05:48:47;;;;;;;6.00;1.00;;;;;;;23.61;41.45;99871.03;4467590;32;33761;-62
2021/05/04 05:51:14;;;;;;;4.18;1.45;;;;;;;23.60;41.47;99871.25;4467625;32;33286;-60
2021/05/04 05:53:41;;;;;;;5.87;1.23;;;;;;;23.60;41.46;99872.09;4466355;32;34871;-61
2021/05/04 05:56:08;;;;;;;6.22;1.30;;;;;;;23.62;41.46;99871.84;4467293;32;33661;-63
2021/05/04 05:58:35;;;;;;;5.95;1.42;;;;;;;23.60;41.45;99872.09;4467756;32;34823;-64
2021/05/04 06:01:02;;;;;;;5.25;1.77;;;;;;;23.61;41.50;99868.31;4467437;32;34291;-62
2021/05/04 06:03:30;;;;;;;8.55;1.70;;;;;;;23.63;41.39;99874.34;4467243;32;33845;-63
2021/05/04 06:05:57;;;;;;;5.03;1.20;;;;;;;23.62;41.40;99872.69;4467769;32;33816;-60
2021/05/04 06:08:25;;;;;;;5.85;1.30;;;;;;;23.63;41.53;99865.34;4467311;32;33751;-62
2021/05/04 06:10:53;;;;;;;4.32;1.20;;;;;;;23.63;41.50;99863.44;4467266;32;33259;-60
2021/05/04 06:13:20;;;;;;;6.30;1.30;;;;;;;23.62;41.49;99861.78;4467348;32;33818;-62
2021/05/04 06:15:47;;;;;;;10.38;1.67;;;;;;;23.63;41.47;99857.16;4467606;32;33879;-63
2021/05/04 06:18:15;;;;;;;8.25;1.37;;;;;;;23.62;41.40;99850.88;4469212;32;34433;-62
2021/05/04 06:20:42;;;;;;;8.45;3.25;;;;;;;23.62;41.32;99853.63;4469263;32;34091;-61
2021/05/04 06:23:09;;;;;;;9.05;1.98;;;;;;;23.66;39.74;99852.12;4469167;32;34567;-63
2021/05/04 06:25:36;;;;;;;22.58;2.58;;;;;;;23.62;39.69;99848.16;4471585;32;33974;-61
2021/05/04 06:28:09;;;;;;;9.00;2.33;;;;;;;23.59;40.09;99840.44;4477198;32;34600;-61
2021/05/04 06:30:37;;;;;;;11.80;2.70;;;;;;;23.57;40.36;99837.12;4478286;32;34239;-60
2021/05/04 06:33:08;;;;;;;17.58;2.67;;;;;;;23.56;40.51;99832.75;4468931;32;34630;-61
2021/05/04 06:35:37;;;;;;;16.67;3.22;;;;;;;23.57;40.46;99833.56;4475312;32;34406;-60
2021/05/04 06:38:04;;;;;;;9.45;2.42;;;;;;;23.55;40.37;99835.66;4483519;32;34004;-60
2021/05/04 06:40:31;;;;;;;9.63;2.30;;;;;;;23.54;40.26;99837.56;4484494;32;33246;-61
2021/05/04 06:42:59;;;;;;;6.50;2.33;;;;;;;23.55;40.29;99839.25;4476123;32;33742;-61
2021/05/04 06:45:27;;;;;;;13.10;2.53;;;;;;;23.55;40.33;99832.94;4484674;32;33827;-60
2021/05/04 06:47:54;;;;;;;12.98;2.55;;;;;;;23.56;40.38;99840.91;4475628;32;34613;-62
2021/05/04 06:50:22;;;;;;;8.85;2.20;;;;;;;23.56;40.33;99837.34;4469009;32;33500;-61
2021/05/04 06:52:49;;;;;;;9.32;2.53;;;;;;;23.57;40.37;99836.28;4469101;32;33792;-61
2021/05/04 06:55:16;;;;;;;8.00;2.40;;;;;;;23.57;40.44;99845.28;4480527;32;33747;-61
2021/05/04 06:57:43;;;;;;;8.32;2.42;;;;;;;23.58;40.44;99841.50;4483336;32;33555;-62
2021/05/04 07:00:11;;;;;;;10.98;2.40;;;;;;;23.59;40.50;99837.72;4475163;32;33416;-61
2021/05/04 07:02:38;;;;;;;7.90;2.12;;;;;;;23.61;40.53;99841.06;4468880;32;33816;-61
2021/05/04 07:05:06;;;;;;;9.98;2.65;;;;;;;23.62;40.62;99839.16;4468917;32;33738;-61
2021/05/04 07:07:33;;;;;;;4.90;1.90;;;;;;;23.62;40.65;99840.00;4468936;32;34378;-61
2021/05/04 07:10:00;;;;;;;6.57;2.05;;;;;;;23.64;40.69;99832.47;4468920;32;33022;-61
2021/05/04 07:12:29;;;;;;;6.90;2.30;;;;;;;23.64;40.71;99835.19;4468862;32;33805;-61
2021/05/04 07:14:56;;;;;;;4.57;1.87;;;;;;;23.66;40.69;99835.78;4468879;32;34867;-61
2021/05/04 07:17:24;;;;;;;4.87;2.33;;;;;;;23.68;40.73;99844.56;4468693;32;33799;-61
2021/05/04 07:19:54;;;;;;;7.50;2.00;;;;;;;23.66;40.79;99834.97;4468631;32;33038;-61
2021/05/04 07:22:25;;;;;;;5.22;1.95;;;;;;;23.68;40.82;99839.09;4468777;32;34884;-61
2021/05/04 07:24:52;;;;;;;7.55;2.20;;;;;;;23.69;40.84;99837.25;4468804;32;34807;-61
2021/05/04 07:27:19;;;;;;;6.30;2.00;;;;;;;23.71;40.81;99828.84;4467973;32;34016;-61
2021/05/04 07:29:47;;;;;;;5.85;1.92;;;;;;;23.71;40.89;99826.09;4468650;32;33292;-61
2021/05/04 07:32:18;;;;;;;5.53;2.12;;;;;;;23.71;40.92;99828.84;4483045;32;33791;-61
2021/05/04 07:34:49;;;;;;;6.82;2.15;;;;;;;23.72;40.92;99828.59;4484424;32;34818;-57
2021/05/04 07:37:16;;;;;;;7.07;2.78;;;;;;;23.73;40.95;99821.25;4476420;32;34057;-61
2021/05/04 07:39:44;;;;;;;6.93;1.90;;;;;;;23.74;40.96;99820.22;4484427;32;34130;-61
2021/05/04 07:42:11;;;;;;;6.97;1.95;;;;;;;23.74;40.99;99823.78;4484449;32;34699;-60
2021/05/04 07:44:40;;;;;;;6.93;2.05;;;;;;;23.74;41.05;99821.03;4482730;32;33895;-61
2021/05/04 07:47:08;;;;;;;7.25;2.00;;;;;;;23.73;41.06;99813.91;4478211;32;34229;-60
2021/05/04 07:49:43;;;;;;;7.32;2.10;;;;;;;23.75;41.00;99810.97;4469424;32;33311;-61
2021/05/04 07:52:11;;;;;;;5.97;1.90;;;;;;;23.74;40.97;99810.16;4484216;32;33490;-61
2021/05/04 07:54:39;;;;;;;9.68;2.03;;;;;;;23.75;40.84;99800.91;4484220;32;34595;-61
2021/05/04 07:57:06;;;;;;;13.70;2.35;;;;;;;23.74;40.77;99804.69;4483985;32;33785;-57
2021/05/04 07:59:33;;;;;;;7.60;1.80;;;;;;;23.74;40.75;99801.16;4484077;32;33433;-62
2021/05/04 08:02:02;;;;;;;7.72;2.17;;;;;;;23.77;40.73;99795.22;4484196;32;33886;-61
2021/05/04 08:04:30;;;;;;;9.07;2.45;;;;;;;23.76;40.74;99799.84;4470585;32;35045;-61
2021/05/04 08:07:00;;;;;;;7.72;2.10;;;;;;;23.77;40.73;99790.59;4484002;32;33829;-61
2021/05/04 08:12:16;;;;;;;5.72;1.98;;;;;;;23.78;40.85;99783.25;4483515;32;33835;-62
2021/05/04 08:14:45;;;;;;;8.98;1.83;;;;;;;23.78;40.86;99796.88;4472938;32;34665;-58
2021/05/04 08:17:16;;;;;;;8.80;1.77;;;;;;;23.76;40.91;99778.03;4468761;32;33873;-55
2021/05/04 08:19:44;;;;;;;6.85;1.70;;;;;;;23.77;40.96;99789.78;4483811;31;33256;-59
2021/05/04 08:22:11;;;;;;;9.00;2.05;;;;;;;23.78;40.95;99775.09;4480796;32;34570;-61
2021/05/04 08:24:39;;;;;;;7.30;2.03;;;;;;;23.77;40.95;99776.16;4475125;32;33981;-61
2021/05/04 08:27:06;;;;;;;6.62;1.70;;;;;;;23.78;40.99;99764.19;4476340;32;34033;-58
2021/05/04 08:29:33;;;;;;;5.75;1.70;;;;;;;23.79;40.98;99763.16;4469974;32;33806;-61
2021/05/04 08:32:02;;;;;;;5.90;1.70;;;;;;;23.78;41.08;99765.03;4470665;32;34561;-61
2021/05/04 08:34:31;;;;;;;5.25;1.65;;;;;;;23.80;41.04;99768.34;4470071;32;33567;-61
2021/05/04 08:36:58;;;;;;;9.15;1.85;;;;;;;23.80;41.04;99756.63;4477352;32;33806;-61
2021/05/04 08:39:25;;;;;;;9.98;2.10;;;;;;;23.80;41.04;99765.63;4482366;32;33383;-61
2021/05/04 08:41:52;;;;;;;4.93;2.10;;;;;;;23.79;41.07;99752.25;4472953;32;34417;-60
2021/05/04 08:44:20;;;;;;;14.57;2.05;;;;;;;23.79;41.10;99747.63;4468186;32;34236;-59
2021/05/04 08:46:48;;;;;;;8.40;1.90;;;;;;;23.80;41.11;99760.19;4467314;32;33896;-61
2021/05/04 08:49:16;;;;;;;9.45;2.17;;;;;;;23.80;41.16;99752.00;4468117;32;33328;-62
2021/05/04 08:51:48;;;;;;;9.30;2.30;;;;;;;23.80;41.08;99753.91;4468185;32;33438;-59
2021/05/04 08:54:15;;;;;;;10.75;2.50;;;;;;;23.79;41.09;99752.25;4472070;32;33875;-60
2021/05/04 08:56:43;;;;;;;16.70;2.42;;;;;;;23.79;41.03;99753.06;4477163;32;33909;-60
2021/05/04 08:59:10;;;;;;;10.68;2.15;;;;;;;23.80;41.00;99745.72;4483453;32;34214;-60
2021/05/04 09:01:37;;;;;;;10.38;2.00;;;;;;;23.79;41.02;99739.47;4469003;32;34542;-61
2021/05/04 09:04:10;;;;;;;6.90;1.90;;;;;;;23.78;41.05;99740.53;4468068;32;34438;-61
2021/05/04 09:06:43;;;;;;;9.50;2.25;;;;;;;23.80;41.05;99743.00;4466723;32;34527;-61
2021/05/04 09:09:28;;;;;;;16.00;2.67;;;;;;;23.79;41.09;99735.91;4467866;32;34176;-57
2021/05/04 09:20:09;;;;;;;8.18;2.00;;;;;;;23.82;41.08;99713.63;4483332;32;33630;-61
2021/05/04 09:22:52;;;;;;;9.73;1.77;;;;;;;23.79;41.21;99725.00;4483638;32;34332;-61
2021/05/04 09:25:28;;;;;;;13.95;2.10;;;;;;;23.80;41.23;99721.22;4469250;32;33910;-60
2021/05/04 09:28:05;;;;;;;8.25;2.92;;;;;;;23.79;41.25;99709.47;4483496;32;34804;-58
2021/05/04 09:30:33;;;;;;;10.13;2.20;;;;;;;23.80;41.26;99713.88;4482032;32;33280;-59
2021/05/04 09:33:15;;;;;;;10.35;2.12;;;;;;;23.80;41.29;99702.13;4469118;32;33852;-61
2021/05/04 09:35:42;;;;;;;8.63;2.20;;;;;;;23.80;41.26;99693.97;4468132;32;34522;-59
2021/05/04 09:38:11;;;;;;;7.28;2.00;;;;;;;23.83;41.27;99698.97;4467512;32;34409;-59
2021/05/04 09:40:40;;;;;;;10.05;2.20;;;;;;;23.81;41.27;99676.53;4466435;32;33194;-62
2021/05/04 09:43:10;;;;;;;8.23;2.30;;;;;;;23.80;41.31;99689.34;4467469;32;34369;-62
2021/05/04 09:45:54;;;;;;;7.80;1.80;;;;;;;23.80;41.28;99683.06;4467058;32;34778;-61
2021/05/04 09:48:42;;;;;;;12.05;2.33;;;;;;;23.80;41.21;99669.44;4467577;32;34407;-61
2021/05/04 09:51:16;;;;;;;9.27;2.05;;;;;;;23.82;41.09;99676.31;4468083;32;33363;-60
2021/05/04 09:53:59;;;;;;;9.45;2.00;;;;;;;23.81;41.10;99669.19;4469512;32;34599;-59
2021/05/04 09:56:36;;;;;;;7.28;2.10;;;;;;;23.81;41.10;99671.09;4469211;32;34626;-61
2021/05/04 09:59:04;;;;;;;13.00;2.80;;;;;;;23.83;41.11;99663.53;4470894;32;34238;-62
2021/05/04 10:01:31;;;;;;;10.40;2.17;;;;;;;23.81;41.15;99662.94;4478100;32;33419;-61
2021/05/04 10:04:00;;;;;;;12.50;2.30;;;;;;;23.81;41.15;99654.75;4481741;32;35306;-59
2021/05/04 10:06:27;;;;;;;8.52;2.37;;;;;;;23.82;41.18;99659.97;4478273;32;34723;-61
2021/05/04 10:08:54;;;;;;;10.25;2.22;;;;;;;23.83;41.21;99655.38;4482733;32;34182;-62
2021/05/04 10:11:22;;;;;;;10.10;2.42;;;;;;;23.84;41.20;99646.12;4462098;32;33476;-61
2021/05/04 10:13:53;;;;;;;8.27;2.22;;;;;;;23.82;41.25;99654.50;4477339;32;34592;-61
2021/05/04 10:16:24;;;;;;;6.68;2.20;;;;;;;23.82;41.24;99643.59;4484201;32;33755;-61
2021/05/04 10:18:52;;;;;;;11.80;2.45;;;;;;;23.82;41.33;99645.50;4484927;32;34346;-61
2021/05/04 10:21:20;;;;;;;6.37;1.80;;;;;;;23.83;41.27;99628.13;4470710;32;33565;-61
2021/05/04 10:23:47;;;;;;;13.43;2.70;;;;;;;23.84;41.24;99627.87;4483913;32;34467;-61
2021/05/04 10:26:15;;;;;;;11.70;2.17;;;;;;;23.84;41.27;99616.16;4484949;32;33387;-60
2021/05/04 10:29:02;;;;;;;13.02;2.95;;;;;;;23.85;41.30;99625.97;4478664;32;33562;-61
2021/05/04 10:31:37;;;;;;;4.62;1.67;;;;;;;23.85;41.26;99631.44;4477642;32;33429;-61
2021/05/04 10:34:23;;;;;;;7.50;2.20;;;;;;;23.86;41.22;99620.28;4478759;32;34727;-61
2021/05/04 10:37:00;;;;;;;6.97;2.33;;;;;;;23.87;41.22;99613.75;4482139;32;34475;-62
2021/05/04 10:39:32;;;;;;;8.25;2.20;;;;;;;23.84;41.20;99610.69;4483660;32;33678;-62
2021/05/04 10:42:00;;;;;;;6.80;2.00;;;;;;;23.85;41.23;99606.91;4485005;32;33198;-62
2021/05/04 10:44:27;;;;;;;9.55;2.17;;;;;;;23.84;41.01;99597.09;4484277;32;34667;-60
2021/05/04 10:46:57;;;;;;;8.77;2.00;;;;;;;23.83;40.96;99592.69;4478045;32;33854;-61
2021/05/04 10:49:57;;;;;;;7.72;2.30;;;;;;;23.82;40.95;99597.28;4484537;32;33484;-61
2021/05/04 10:52:55;;;;;;;8.18;2.22;;;;;;;23.83;40.86;99587.25;4484743;32;33275;-61
2021/05/04 10:55:24;;;;;;;8.07;1.92;;;;;;;23.83;40.69;99577.19;4464504;32;33682;-60
2021/05/04 10:58:11;;;;;;;8.52;2.20;;;;;;;23.80;40.59;99565.91;4469009;32;33666;-61
2021/05/04 11:00:53;;;;;;;10.95;2.45;;;;;;;23.82;40.79;99571.94;4468998;32;33973;-61
2021/05/04 11:03:30;;;;;;;8.68;2.37;;;;;;;23.80;40.77;99568.63;4466034;32;33269;-60
2021/05/04 11:06:04;;;;;;;11.00;2.60;;;;;;;23.80;40.77;99555.00;4476057;32;34543;-60
2021/05/04 11:08:40;;;;;;;8.20;2.00;;;;;;;23.77;40.76;99560.91;4483696;32;34794;-61
2021/05/04 11:11:39;;;;;;;6.18;1.70;;;;;;;23.78;40.73;99565.31;4484673;32;33834;-61
2021/05/04 11:14:06;;;;;;;6.37;2.03;;;;;;;23.79;40.68;99551.47;4472283;31;34321;-60
2021/05/04 11:16:45;;;;;;;10.73;1.95;;;;;;;23.76;40.71;99546.47;4484776;32;34007;-61
2021/05/04 11:19:33;;;;;;;8.95;2.05;;;;;;;23.76;40.73;99543.75;4484443;32;34827;-61
2021/05/04 11:22:06;;;;;;;6.20;1.90;;;;;;;23.74;40.72;99528.72;4484674;32;33659;-60
2021/05/04 11:24:33;;;;;;;9.50;2.22;;;;;;;23.74;40.72;99526.00;4484359;32;34414;-58
2021/05/04 11:27:04;;;;;;;10.65;2.60;;;;;;;23.72;40.70;99536.28;4484464;32;34907;-61
2021/05/04 11:29:31;;;;;;;8.68;2.50;;;;;;;23.72;40.67;99528.09;4484411;32;33830;-58
2021/05/04 11:32:15;;;;;;;9.85;2.10;;;;;;;23.72;40.65;99522.66;4484250;32;33723;-61
2021/05/04 11:34:52;;;;;;;10.30;2.10;;;;;;;23.72;40.64;99526.22;4484816;32;34337;-61
2021/05/04 11:37:20;;;;;;;5.85;1.87;;;;;;;23.71;40.64;99529.19;4484367;32;33761;-61
2021/05/04 11:39:59;;;;;;;8.13;1.98;;;;;;;23.70;40.65;99520.19;4484332;32;33800;-60
2021/05/04 11:42:39;;;;;;;7.95;2.12;;;;;;;23.72;40.59;99514.50;4483704;32;34690;-62
2021/05/04 11:45:12;;;;;;;8.18;2.10;;;;;;;23.70;40.63;99503.00;4484424;32;33215;-62
2021/05/04 11:47:44;;;;;;;8.95;2.00;;;;;;;23.68;40.61;99511.41;4479131;32;33873;-60
2021/05/04 11:50:16;;;;;;;6.78;2.03;;;;;;;23.67;40.60;99499.69;4483762;32;33948;-60
2021/05/04 11:52:44;;;;;;;5.62;1.45;;;;;;;23.68;40.59;99503.22;4483067;32;34027;-61